createdAt,value
2019-01-04T00:01:43.285Z,81.28
2019-01-04T00:04:27.328Z,81.27
2019-01-04T00:06:57.754Z,81.10
2019-01-04T00:09:28.288Z,81.44
2019-01-04T00:11:58.808Z,81.51
2019-01-04T00:14:29.698Z,81.48
2019-01-04T00:17:00.224Z,81.56
2019-01-04T00:19:30.883Z,81.50
2019-01-04T00:22:01.600Z,81.57
2019-01-04T00:24:32.198Z,81.69
2019-01-04T00:27:02.861Z,81.57
2019-01-04T00:29:33.768Z,81.69
2019-01-04T00:32:04.456Z,81.59
2019-01-04T00:34:38.668Z,81.83
2019-01-04T00:37:09.647Z,81.95
2019-01-04T00:39:40.281Z,81.94
2019-01-04T00:42:11.178Z,81.72
2019-01-04T00:44:41.898Z,81.88
2019-01-04T00:47:12.628Z,81.89
2019-01-04T00:49:43.213Z,81.98
2019-01-04T00:52:13.772Z,82.05
2019-01-04T00:54:44.409Z,82.07
2019-01-04T00:57:57.984Z,82.12
2019-01-04T01:01:22.990Z,82.11
2019-01-04T01:04:35.047Z,82.27
2019-01-04T01:07:33.827Z,82.35
2019-01-04T01:10:44.371Z,82.39
2019-01-04T01:14:02.999Z,82.42
2019-01-04T01:17:30.938Z,82.51
2019-01-04T01:20:58.858Z,82.47
2019-01-04T01:24:17.943Z,82.51
2019-01-04T01:27:46.006Z,82.77
2019-01-04T01:31:04.201Z,82.83
2019-01-04T01:34:12.050Z,82.97
2019-01-04T01:37:27.227Z,83.17
2019-01-04T01:40:43.481Z,83.28
2019-01-04T01:44:11.337Z,83.30
2019-01-04T01:47:23.658Z,83.44
2019-01-04T01:50:51.512Z,83.48
2019-01-04T01:53:21.927Z,83.70
2019-01-04T01:55:52.514Z,83.62
2019-01-04T01:58:22.998Z,83.72
2019-01-04T02:00:53.611Z,83.55
2019-01-04T02:03:23.999Z,83.52
2019-01-04T02:05:54.479Z,83.53
2019-01-04T02:08:25.238Z,83.53
2019-01-04T02:10:55.791Z,83.78
2019-01-04T02:13:26.469Z,83.79
2019-01-04T02:15:57.003Z,83.62
2019-01-04T02:18:27.567Z,83.66
2019-01-04T02:20:58.421Z,83.79
2019-01-04T02:23:29.112Z,83.81
2019-01-04T02:25:59.643Z,83.89
2019-01-04T02:28:30.068Z,83.87
2019-01-04T02:31:00.697Z,83.96
2019-01-04T02:33:31.369Z,83.93
2019-01-04T02:36:02.129Z,83.91
2019-01-04T02:38:32.694Z,83.89
2019-01-04T02:41:03.321Z,83.94
2019-01-04T02:43:33.808Z,83.92
2019-01-04T02:46:04.467Z,83.89
2019-01-04T02:48:34.996Z,83.84
2019-01-04T02:51:05.547Z,83.76
2019-01-04T02:53:36.248Z,83.60
2019-01-04T02:56:06.944Z,83.43
2019-01-04T02:58:37.403Z,83.21
2019-01-04T03:01:08.767Z,83.16
2019-01-04T03:03:39.448Z,82.93
2019-01-04T03:06:10.157Z,82.87
2019-01-04T03:08:40.767Z,82.67
2019-01-04T03:11:11.252Z,82.46
2019-01-04T03:13:42.127Z,82.42
2019-01-04T03:16:12.587Z,82.28
2019-01-04T03:18:43.137Z,82.21
2019-01-04T03:21:13.734Z,81.97
2019-01-04T03:23:44.342Z,81.84
2019-01-04T03:26:14.867Z,81.73
2019-01-04T03:28:45.448Z,81.67
2019-01-04T03:31:15.952Z,81.80
2019-01-04T03:33:46.651Z,81.67
2019-01-04T03:36:17.030Z,81.71
2019-01-04T03:38:47.531Z,81.91
2019-01-04T03:41:18.007Z,81.81
2019-01-04T03:43:48.500Z,81.73
2019-01-04T03:46:18.944Z,81.92
2019-01-04T03:48:49.590Z,81.76
2019-01-04T03:51:20.116Z,81.86
2019-01-04T03:53:50.828Z,81.73
2019-01-04T03:56:21.317Z,81.74
2019-01-04T03:58:51.848Z,81.73
2019-01-04T04:01:22.349Z,81.60
2019-01-04T04:03:52.800Z,81.74
2019-01-04T04:06:23.258Z,81.89
2019-01-04T04:08:53.883Z,81.80
2019-01-04T04:11:24.421Z,81.51
2019-01-04T04:13:54.893Z,81.34
2019-01-04T04:16:25.449Z,81.34
2019-01-04T04:18:56.003Z,81.56
2019-01-04T04:21:26.573Z,81.68
2019-01-04T04:23:57.250Z,81.66
2019-01-04T04:26:27.843Z,81.55
2019-01-04T04:28:58.443Z,81.46
2019-01-04T04:31:29.073Z,81.32
2019-01-04T04:33:59.717Z,81.27
2019-01-04T04:36:30.441Z,81.53
2019-01-04T04:39:00.998Z,81.53
2019-01-04T04:41:31.492Z,81.81
2019-01-04T04:44:02.041Z,82.07
2019-01-04T04:46:32.518Z,82.13
2019-01-04T04:49:03.047Z,82.26
2019-01-04T04:51:33.609Z,82.42
2019-01-04T04:54:04.263Z,82.48
2019-01-04T04:56:34.924Z,82.68
2019-01-04T04:59:05.771Z,83.11
2019-01-04T05:01:36.263Z,83.55
2019-01-04T05:04:06.799Z,83.91
2019-01-04T05:06:37.466Z,84.08
2019-01-04T05:09:08.718Z,84.16
2019-01-04T05:11:39.474Z,84.15
2019-01-04T05:14:10.051Z,84.09
2019-01-04T05:16:41.792Z,84.09
2019-01-04T05:19:13.157Z,84.04
2019-01-04T05:21:43.649Z,83.85
2019-01-04T05:24:14.109Z,83.77
2019-01-04T05:26:45.328Z,83.65
2019-01-04T05:29:16.979Z,83.42
2019-01-04T05:31:48.825Z,83.20
2019-01-04T05:34:21.041Z,83.03
2019-01-04T05:36:51.798Z,82.90
2019-01-04T05:39:22.437Z,82.79
2019-01-04T05:41:52.943Z,82.73
2019-01-04T05:44:23.826Z,82.69
2019-01-04T05:46:56.622Z,82.71
2019-01-04T05:49:28.371Z,82.62
2019-01-04T05:52:00.791Z,82.48
2019-01-04T05:54:32.724Z,82.50
2019-01-04T05:57:03.391Z,82.44
2019-01-04T05:59:33.928Z,82.48
2019-01-04T06:02:04.828Z,82.39
2019-01-04T06:04:35.598Z,82.45
2019-01-04T06:07:07.036Z,82.21
2019-01-04T06:09:38.704Z,82.20
2019-01-04T06:12:10.329Z,82.73
2019-01-04T06:14:42.530Z,82.46
2019-01-04T06:17:18.313Z,82.10
2019-01-04T06:19:49.118Z,81.92
2019-01-04T06:22:19.651Z,81.73
2019-01-04T06:24:50.379Z,81.45
2019-01-04T06:27:22.950Z,81.31
2019-01-04T06:29:58.546Z,81.10
2019-01-04T06:32:43.441Z,80.79
2019-01-04T06:35:14.848Z,80.46
2019-01-04T06:37:47.235Z,80.72
2019-01-04T06:40:18.586Z,80.78
2019-01-04T06:42:51.084Z,80.88
2019-01-04T06:45:23.840Z,80.60
2019-01-04T06:47:59.061Z,80.56
2019-01-04T06:50:33.039Z,80.57
2019-01-04T06:53:05.908Z,80.46
2019-01-04T06:56:02.352Z,80.19
2019-01-04T06:58:34.468Z,79.86
2019-01-04T07:01:06.919Z,79.69
2019-01-04T07:03:40.287Z,79.67
2019-01-04T07:06:12.857Z,79.97
2019-01-04T07:08:47.956Z,80.17
2019-01-04T07:11:21.551Z,80.07
2019-01-04T07:13:57.326Z,79.69
2019-01-04T07:16:29.939Z,79.13
2019-01-04T07:19:05.026Z,79.33
2019-01-04T07:21:41.883Z,79.67
2019-01-04T07:24:13.889Z,80.10
2019-01-04T07:26:45.722Z,80.41
2019-01-04T07:29:24.804Z,80.72
2019-01-04T07:31:59.037Z,81.05
2019-01-04T07:34:32.246Z,81.19
2019-01-04T07:37:08.536Z,81.36
2019-01-04T07:39:43.120Z,81.39
2019-01-04T07:42:18.747Z,81.37
2019-01-04T07:44:54.469Z,81.51
2019-01-04T07:47:26.969Z,81.46
2019-01-04T07:50:01.152Z,81.34
2019-01-04T07:52:32.931Z,81.40
2019-01-04T07:55:08.446Z,81.39
2019-01-04T07:57:41.356Z,81.57
2019-01-04T08:00:21.022Z,81.67
2019-01-04T08:02:57.291Z,81.88
2019-01-04T08:05:32.310Z,81.83
2019-01-04T08:08:12.805Z,81.83
2019-01-04T08:10:45.641Z,81.94
2019-01-04T08:13:18.897Z,82.04
2019-01-04T08:15:53.333Z,82.00
2019-01-04T08:18:29.737Z,82.09
2019-01-04T08:21:02.666Z,82.20
2019-01-04T08:23:41.447Z,81.72
2019-01-04T08:26:15.596Z,81.92
2019-01-04T08:28:46.417Z,81.67
2019-01-04T08:31:18.219Z,81.55
2019-01-04T08:33:54.735Z,81.35
2019-01-04T08:36:27.440Z,81.16
2019-01-04T08:39:00.147Z,81.42
2019-01-04T08:41:33.289Z,80.62
2019-01-04T08:44:05.514Z,80.37
2019-01-04T08:46:46.331Z,80.48
2019-01-04T08:49:21.340Z,80.30
2019-01-04T08:51:52.356Z,80.13
2019-01-04T08:54:23.537Z,80.13
2019-01-04T08:56:55.700Z,80.03
2019-01-04T08:59:28.642Z,79.87
2019-01-04T09:02:06.318Z,80.34
2019-01-04T09:04:41.107Z,80.12
2019-01-04T09:07:14.999Z,80.28
2019-01-04T09:09:51.035Z,80.63
2019-01-04T09:12:23.406Z,80.02
2019-01-04T09:14:57.887Z,80.20
2019-01-04T09:17:28.525Z,80.61
2019-01-04T09:20:01.729Z,80.60
2019-01-04T09:22:37.547Z,80.76
2019-01-04T09:25:11.357Z,80.87
2019-01-04T09:27:45.652Z,80.89
2019-01-04T09:30:18.546Z,81.03
2019-01-04T09:32:53.235Z,81.08
2019-01-04T09:35:28.737Z,81.13
2019-01-04T09:38:07.108Z,81.17
2019-01-04T09:40:40.186Z,81.14
2019-01-04T09:43:15.195Z,81.05
2019-01-04T09:45:48.785Z,81.10
2019-01-04T09:48:20.440Z,81.63
2019-01-04T09:50:55.484Z,82.30
2019-01-04T09:53:26.300Z,82.63
2019-01-04T09:55:56.838Z,82.86
2019-01-04T09:58:32.450Z,82.73
2019-01-04T10:01:12.837Z,82.69
2019-01-04T10:03:48.275Z,82.64
2019-01-04T10:06:23.839Z,82.86
2019-01-04T10:09:01.599Z,82.96
2019-01-04T10:11:32.563Z,83.22
2019-01-04T10:14:03.209Z,83.60
2019-01-04T10:16:33.797Z,83.67
2019-01-04T10:19:04.446Z,83.88
2019-01-04T10:21:36.023Z,84.17
2019-01-04T10:24:06.587Z,84.18
2019-01-04T10:26:37.140Z,84.17
2019-01-04T10:29:07.778Z,84.15
2019-01-04T10:31:38.477Z,84.30
2019-01-04T10:34:09.551Z,84.53
2019-01-04T10:36:40.415Z,84.65
2019-01-04T10:39:11.049Z,84.84
2019-01-04T10:41:41.632Z,84.79
2019-01-04T10:44:12.218Z,84.82
2019-01-04T10:46:42.967Z,84.80
2019-01-04T10:49:13.667Z,84.97
2019-01-04T10:51:44.498Z,84.72
2019-01-04T10:54:15.296Z,84.68
2019-01-04T10:56:45.868Z,84.73
2019-01-04T10:59:16.808Z,84.87
2019-01-04T11:01:47.599Z,85.03
2019-01-04T11:04:18.158Z,85.20
2019-01-04T11:06:48.802Z,85.11
2019-01-04T11:09:19.512Z,85.23
2019-01-04T11:11:50.062Z,85.16
2019-01-04T11:14:21.176Z,85.17
2019-01-04T11:16:51.828Z,85.20
2019-01-04T11:19:22.342Z,85.15
2019-01-04T11:22:12.167Z,85.01
2019-01-04T11:25:40.039Z,85.14
2019-01-04T11:28:44.596Z,85.40
2019-01-04T11:31:47.621Z,85.30
2019-01-04T11:35:11.707Z,85.46
2019-01-04T11:38:20.063Z,85.50
2019-01-04T11:41:40.219Z,85.48
2019-01-04T11:45:05.078Z,85.80
2019-01-04T11:48:24.453Z,85.95
2019-01-04T11:51:36.038Z,85.88
2019-01-04T11:54:13.557Z,85.91
2019-01-04T11:56:44.326Z,86.20
2019-01-04T11:59:14.858Z,86.19
2019-01-04T12:01:45.468Z,86.30
2019-01-04T12:04:16.130Z,86.36
2019-01-04T12:06:46.970Z,86.48
2019-01-04T12:09:17.516Z,86.53
2019-01-04T12:11:48.321Z,86.76
2019-01-04T12:14:18.827Z,86.71
2019-01-04T12:16:49.548Z,86.96
2019-01-04T12:19:20.095Z,87.13
2019-01-04T12:21:50.727Z,87.14
2019-01-04T12:24:21.357Z,87.13
2019-01-04T12:26:51.882Z,87.38
2019-01-04T12:29:22.733Z,87.38
2019-01-04T12:31:56.926Z,87.54
2019-01-04T12:34:30.037Z,87.61
2019-01-04T12:37:05.042Z,87.48
2019-01-04T12:39:43.052Z,87.36
2019-01-04T12:42:19.896Z,87.38
2019-01-04T12:44:53.186Z,87.41
2019-01-04T12:47:30.292Z,87.48
2019-01-04T12:50:06.882Z,87.65
2019-01-04T12:52:42.482Z,87.83
2019-01-04T12:55:18.386Z,88.00
2019-01-04T12:57:54.086Z,88.17
2019-01-04T13:00:29.826Z,88.32
2019-01-04T13:03:02.242Z,88.46
2019-01-04T13:05:33.247Z,88.61
2019-01-04T13:08:09.589Z,88.66
2019-01-04T13:10:42.487Z,88.80
2019-01-04T13:13:16.938Z,88.82
2019-01-04T13:15:49.371Z,88.70
2019-01-04T13:18:22.703Z,88.55
2019-01-04T13:20:58.177Z,88.54
2019-01-04T13:23:36.506Z,88.53
2019-01-04T13:26:08.802Z,88.59
2019-01-04T13:28:41.358Z,88.78
2019-01-04T13:31:24.537Z,88.98
2019-01-04T13:33:56.287Z,89.06
2019-01-04T13:36:30.150Z,89.16
2019-01-04T13:39:04.697Z,89.24
2019-01-04T13:41:43.546Z,89.34
2019-01-04T13:44:17.490Z,89.44
2019-01-04T13:46:52.775Z,89.47
2019-01-04T13:49:28.733Z,89.52
2019-01-04T13:52:00.227Z,89.64
2019-01-04T13:54:34.521Z,89.72
2019-01-04T13:57:05.369Z,89.75
2019-01-04T13:59:36.200Z,89.78
2019-01-04T14:02:06.967Z,89.75
2019-01-04T14:04:37.503Z,89.80
2019-01-04T14:07:08.076Z,89.86
2019-01-04T14:09:38.727Z,89.96
2019-01-04T14:12:09.237Z,90.05
2019-01-04T14:14:42.535Z,90.15
2019-01-04T14:17:14.343Z,90.20
2019-01-04T14:19:58.392Z,90.30
2019-01-04T14:22:35.360Z,90.38
2019-01-04T14:25:08.290Z,90.52
2019-01-04T14:27:40.371Z,90.53
2019-01-04T14:30:16.185Z,90.57
2019-01-04T14:32:55.644Z,90.62
2019-01-04T14:35:27.574Z,90.62
2019-01-04T14:37:59.843Z,90.69
2019-01-04T14:40:35.037Z,90.72
2019-01-04T14:43:11.130Z,90.81
2019-01-04T14:45:44.398Z,90.87
2019-01-04T14:48:18.358Z,90.94
2019-01-04T14:50:49.557Z,90.98
2019-01-04T14:53:20.274Z,91.05
2019-01-04T14:55:50.909Z,91.15
2019-01-04T14:58:22.231Z,91.24
2019-01-04T15:00:54.067Z,91.34
2019-01-04T15:03:24.736Z,91.42
2019-01-04T15:05:55.146Z,91.47
2019-01-04T15:08:25.710Z,91.55
2019-01-04T15:10:56.350Z,91.58
2019-01-04T15:13:27.060Z,91.59
2019-01-04T15:15:57.987Z,91.63
2019-01-04T15:18:28.627Z,91.65
2019-01-04T15:20:59.344Z,91.67
2019-01-04T15:23:29.926Z,91.66
2019-01-04T15:26:00.673Z,91.66
2019-01-04T15:28:31.354Z,91.68
2019-01-04T15:31:01.966Z,91.65
2019-01-04T15:33:32.627Z,91.67
2019-01-04T15:36:04.087Z,91.68
2019-01-04T15:38:43.052Z,91.67
2019-01-04T15:41:15.121Z,91.66
2019-01-04T15:43:47.139Z,91.60
2019-01-04T15:46:19.168Z,91.58
2019-01-04T15:48:50.649Z,91.56
2019-01-04T15:51:21.846Z,91.55
2019-01-04T15:53:54.464Z,91.53
2019-01-04T15:56:25.828Z,91.50
2019-01-04T15:58:58.540Z,91.46
2019-01-04T16:01:29.187Z,91.46
2019-01-04T16:03:59.715Z,91.44
2019-01-04T16:06:30.916Z,91.41
2019-01-04T16:09:02.345Z,91.41
2019-01-04T16:11:35.049Z,91.42
2019-01-04T16:14:05.841Z,91.42
2019-01-04T16:16:38.278Z,91.48
2019-01-04T16:19:09.006Z,91.46
2019-01-04T16:21:39.763Z,91.51
2019-01-04T16:24:10.319Z,91.53
2019-01-04T16:26:40.998Z,91.54
2019-01-04T16:29:11.616Z,91.55
2019-01-04T16:31:42.205Z,91.56
2019-01-04T16:34:12.752Z,91.58
2019-01-04T16:36:43.408Z,91.59
2019-01-04T16:39:14.106Z,91.61
2019-01-04T16:41:44.668Z,91.66
2019-01-04T16:44:15.337Z,91.69
2019-01-04T16:46:45.967Z,91.73
2019-01-04T16:49:16.591Z,91.72
2019-01-04T16:51:47.198Z,91.73
2019-01-04T16:54:17.857Z,91.70
2019-01-04T16:56:48.737Z,91.74
2019-01-04T16:59:19.303Z,91.72
2019-01-04T17:01:49.914Z,91.71
2019-01-04T17:04:20.677Z,91.70
2019-01-04T17:06:51.334Z,91.65
2019-01-04T17:09:22.132Z,91.66
2019-01-04T17:11:52.749Z,91.60
2019-01-04T17:14:23.287Z,91.60
2019-01-04T17:16:53.923Z,91.61
2019-01-04T17:19:24.557Z,91.60
2019-01-04T17:21:55.232Z,91.61
2019-01-04T17:24:27.032Z,91.64
2019-01-04T17:26:58.200Z,91.67
2019-01-04T17:29:28.687Z,91.67
2019-01-04T17:31:59.232Z,91.72
2019-01-04T17:34:29.908Z,91.75
2019-01-04T17:37:00.498Z,91.77
2019-01-04T17:39:30.998Z,91.83
2019-01-04T17:42:02.291Z,91.85
2019-01-04T17:44:33.031Z,91.89
2019-01-04T17:47:03.696Z,91.91
2019-01-04T17:49:34.244Z,91.91
2019-01-04T17:52:04.806Z,91.96
2019-01-04T17:54:35.250Z,91.97
2019-01-04T17:57:05.962Z,92.00
2019-01-04T17:59:36.602Z,92.03
2019-01-04T18:02:07.303Z,92.06
2019-01-04T18:04:38.012Z,92.08
2019-01-04T18:07:08.680Z,92.08
2019-01-04T18:09:40.381Z,92.03
2019-01-04T18:12:18.075Z,91.99
2019-01-04T18:14:52.413Z,92.01
2019-01-04T18:17:27.654Z,91.99
2019-01-04T18:20:01.516Z,91.97
2019-01-04T18:22:33.680Z,92.01
2019-01-04T18:25:08.767Z,91.96
2019-01-04T18:27:40.872Z,91.98
2019-01-04T18:30:12.483Z,91.97
2019-01-04T18:32:43.322Z,92.00
2019-01-04T18:35:14.064Z,92.02
2019-01-04T18:37:47.773Z,92.02
2019-01-04T18:40:18.467Z,92.02
2019-01-04T18:42:49.047Z,92.04
2019-01-04T18:45:21.982Z,92.06
2019-01-04T18:47:53.956Z,92.07
2019-01-04T18:50:24.803Z,92.07
2019-01-04T18:52:55.478Z,92.04
2019-01-04T18:55:26.172Z,92.02
2019-01-04T18:58:00.506Z,92.04
2019-01-04T19:00:33.248Z,92.05
2019-01-04T19:03:03.753Z,92.07
2019-01-04T19:05:38.687Z,92.07
2019-01-04T19:08:10.432Z,92.07
2019-01-04T19:10:47.934Z,92.09
2019-01-04T19:13:18.432Z,92.12
2019-01-04T19:15:51.639Z,92.09
2019-01-04T19:18:25.880Z,92.12
2019-01-04T19:21:00.474Z,92.13
2019-01-04T19:23:32.671Z,92.16
2019-01-04T19:26:03.287Z,92.16
2019-01-04T19:28:33.924Z,92.17
2019-01-04T19:31:05.962Z,92.14
2019-01-04T19:33:37.047Z,92.16
2019-01-04T19:36:10.875Z,92.16
2019-01-04T19:38:52.096Z,92.15
2019-01-04T19:41:26.268Z,92.15
2019-01-04T19:44:01.420Z,92.15
2019-01-04T19:46:32.184Z,92.14
2019-01-04T19:49:04.298Z,92.14
2019-01-04T19:51:35.106Z,92.18
2019-01-04T19:54:05.897Z,92.19
2019-01-04T19:56:48.180Z,92.21
2019-01-04T19:59:20.051Z,92.28
2019-01-04T20:01:57.090Z,92.29
2019-01-04T20:04:30.694Z,92.33
2019-01-04T20:08:05.672Z,92.37
2019-01-04T20:11:40.246Z,92.37
2019-01-04T20:15:17.512Z,92.37
2019-01-04T20:18:13.188Z,92.39
2019-01-04T20:21:02.898Z,92.42
2019-01-04T20:23:58.516Z,92.43
2019-01-04T20:26:50.147Z,92.46
2019-01-04T20:29:40.606Z,92.47
2019-01-04T20:32:31.082Z,92.46
2019-01-04T20:35:28.422Z,92.46
2019-01-04T20:38:19.203Z,92.48
2019-01-04T20:41:09.899Z,92.52
2019-01-04T20:44:02.448Z,92.55
2019-01-04T20:46:53.316Z,92.56
2019-01-04T20:49:43.318Z,92.55
2019-01-04T20:52:35.043Z,92.57
2019-01-04T20:55:27.057Z,92.59
2019-01-04T20:58:16.730Z,92.60
2019-01-04T21:01:10.219Z,92.59
2019-01-04T21:04:01.966Z,92.62
2019-01-04T21:06:49.087Z,92.65
2019-01-04T21:09:40.945Z,92.67
2019-01-04T21:12:30.598Z,92.69
2019-01-04T21:15:23.657Z,92.68
2019-01-04T21:18:13.264Z,92.72
2019-01-04T21:21:10.583Z,92.75
2019-01-04T21:24:03.218Z,92.82
2019-01-04T21:26:53.823Z,92.84
2019-01-04T21:29:43.533Z,92.87
2019-01-04T21:32:32.864Z,92.86
2019-01-04T21:35:22.469Z,92.88
2019-01-04T21:38:11.998Z,92.90
2019-01-04T21:41:04.523Z,92.92
2019-01-04T21:43:52.023Z,92.91
2019-01-04T21:46:42.028Z,92.90
2019-01-04T21:49:32.318Z,92.93
2019-01-04T21:52:25.378Z,92.96
2019-01-04T21:55:14.783Z,92.97
2019-01-04T21:58:07.042Z,92.99
2019-01-04T22:00:58.008Z,93.00
2019-01-04T22:03:47.107Z,93.03
2019-01-04T22:06:36.542Z,93.04
2019-01-04T22:09:27.487Z,93.07
2019-01-04T22:12:16.397Z,93.06
2019-01-04T22:15:06.256Z,93.05
2019-01-04T22:17:55.755Z,93.08
2019-01-04T22:20:45.642Z,93.08
2019-01-04T22:23:34.949Z,93.08
2019-01-04T22:26:24.366Z,93.09
2019-01-04T22:29:15.158Z,93.09
2019-01-04T22:32:04.855Z,93.10
2019-01-04T22:34:54.149Z,93.11
2019-01-04T22:37:43.482Z,93.10
2019-01-04T22:40:33.395Z,93.08
2019-01-04T22:43:22.872Z,93.06
2019-01-04T22:46:12.327Z,93.03
2019-01-04T22:49:01.627Z,93.01
2019-01-04T22:51:51.027Z,93.00
2019-01-04T22:54:40.818Z,92.94
2019-01-04T22:57:30.317Z,92.93
2019-01-04T23:00:19.807Z,92.88
2019-01-04T23:03:09.394Z,92.87
2019-01-04T23:05:59.006Z,92.83
2019-01-04T23:08:48.393Z,92.77
2019-01-04T23:11:37.819Z,92.71
2019-01-04T23:14:27.177Z,92.69
2019-01-04T23:17:16.519Z,92.64
2019-01-04T23:20:05.908Z,92.62
2019-01-04T23:23:05.007Z,92.53
2019-01-04T23:25:54.457Z,92.50
2019-01-04T23:28:44.257Z,92.42
2019-01-04T23:31:33.672Z,92.38
2019-01-04T23:34:23.487Z,92.34
2019-01-04T23:37:12.921Z,92.33
2019-01-04T23:40:02.344Z,92.29
2019-01-04T23:42:51.676Z,92.26
2019-01-04T23:45:41.236Z,92.24
2019-01-04T23:48:30.660Z,92.23
2019-01-04T23:51:20.117Z,92.18
2019-01-04T23:54:05.889Z,92.15
2019-01-04T23:56:55.278Z,92.11
2019-01-04T23:59:37.259Z,92.12
